sensor_id;sensor_type;location;lat;lon;timestamp;P1;durP1;ratioP1;P2;durP2;ratioP2
3405;SDS011;10008;48.682;9.016;2023-02-07T00:00:41;14.20;;;9.30;;
3405;SDS011;10008;48.682;9.016;2023-02-07T00:03:07;16.07;;;9.70;;
3405;SDS011;10008;48.682;9.016;2023-02-07T00:05:33;14.73;;;9.93;;
3405;SDS011;10008;48.682;9.016;2023-02-07T00:08:01;19.30;;;11.90;;
3405;SDS011;10008;48.682;9.016;2023-02-07T00:10:28;19.17;;;12.17;;
3405;SDS011;10008;48.682;9.016;2023-02-07T00:12:53;19.77;;;11.20;;
3405;SDS011;10008;48.682;9.016;2023-02-07T00:15:19;16.10;;;10.93;;
3405;SDS011;10008;48.682;9.016;2023-02-07T00:17:45;17.87;;;11.87;;
3405;SDS011;10008;48.682;9.016;2023-02-07T00:20:11;17.10;;;11.77;;
3405;SDS011;10008;48.682;9.016;2023-02-07T00:22:37;20.60;;;11.17;;
3405;SDS011;10008;48.682;9.016;2023-02-07T00:25:02;18.20;;;10.93;;
3405;SDS011;10008;48.682;9.016;2023-02-07T00:27:28;15.50;;;9.40;;
3405;SDS011;10008;48.682;9.016;2023-02-07T00:29:54;17.07;;;10.60;;
3405;SDS011;10008;48.682;9.016;2023-02-07T00:32:20;15.67;;;9.47;;
3405;SDS011;10008;48.682;9.016;2023-02-07T00:34:46;15.97;;;8.87;;
3405;SDS011;10008;48.682;9.016;2023-02-07T00:37:14;17.77;;;10.47;;
3405;SDS011;10008;48.682;9.016;2023-02-07T00:39:41;17.20;;;10.53;;
3405;SDS011;10008;48.682;9.016;2023-02-07T00:42:07;17.77;;;9.33;;
3405;SDS011;10008;48.682;9.016;2023-02-07T00:44:32;17.73;;;10.43;;
3405;SDS011;10008;48.682;9.016;2023-02-07T00:46:58;16.30;;;10.13;;
3405;SDS011;10008;48.682;9.016;2023-02-07T00:49:24;15.13;;;9.20;;
3405;SDS011;10008;48.682;9.016;2023-02-07T00:51:50;16.70;;;9.87;;
3405;SDS011;10008;48.682;9.016;2023-02-07T00:54:16;16.70;;;10.47;;
3405;SDS011;10008;48.682;9.016;2023-02-07T00:56:43;18.30;;;10.97;;
3405;SDS011;10008;48.682;9.016;2023-02-07T00:59:08;18.70;;;11.20;;
3405;SDS011;10008;48.682;9.016;2023-02-07T01:01:34;19.20;;;10.70;;
3405;SDS011;10008;48.682;9.016;2023-02-07T01:04:00;17.37;;;11.63;;
3405;SDS011;10008;48.682;9.016;2023-02-07T01:06:26;17.87;;;10.63;;
3405;SDS011;10008;48.682;9.016;2023-02-07T01:08:55;19.47;;;11.40;;
3405;SDS011;10008;48.682;9.016;2023-02-07T01:11:21;18.40;;;11.53;;
3405;SDS011;10008;48.682;9.016;2023-02-07T01:13:47;19.40;;;12.07;;
3405;SDS011;10008;48.682;9.016;2023-02-07T01:16:17;22.50;;;12.40;;
3405;SDS011;10008;48.682;9.016;2023-02-07T01:19:05;20.73;;;11.80;;
3405;SDS011;10008;48.682;9.016;2023-02-07T01:21:32;21.20;;;11.97;;
3405;SDS011;10008;48.682;9.016;2023-02-07T01:23:57;21.27;;;12.57;;
3405;SDS011;10008;48.682;9.016;2023-02-07T01:26:23;18.70;;;11.17;;
3405;SDS011;10008;48.682;9.016;2023-02-07T01:28:50;20.90;;;12.60;;
3405;SDS011;10008;48.682;9.016;2023-02-07T01:31:16;19.97;;;12.30;;
3405;SDS011;10008;48.682;9.016;2023-02-07T01:33:42;22.80;;;12.40;;
3405;SDS011;10008;48.682;9.016;2023-02-07T01:36:12;22.50;;;12.67;;
3405;SDS011;10008;48.682;9.016;2023-02-07T01:38:40;21.37;;;12.23;;
3405;SDS011;10008;48.682;9.016;2023-02-07T01:41:07;20.40;;;13.20;;
3405;SDS011;10008;48.682;9.016;2023-02-07T01:43:34;23.87;;;13.10;;
3405;SDS011;10008;48.682;9.016;2023-02-07T01:46:16;24.33;;;13.50;;
3405;SDS011;10008;48.682;9.016;2023-02-07T01:48:42;21.87;;;13.60;;
3405;SDS011;10008;48.682;9.016;2023-02-07T01:51:08;21.53;;;13.60;;
3405;SDS011;10008;48.682;9.016;2023-02-07T01:53:34;23.87;;;13.13;;
3405;SDS011;10008;48.682;9.016;2023-02-07T01:56:02;21.93;;;13.30;;
3405;SDS011;10008;48.682;9.016;2023-02-07T01:58:33;24.20;;;13.10;;
3405;SDS011;10008;48.682;9.016;2023-02-07T02:01:01;23.70;;;13.30;;
3405;SDS011;10008;48.682;9.016;2023-02-07T02:03:32;21.13;;;12.00;;
3405;SDS011;10008;48.682;9.016;2023-02-07T02:06:03;22.30;;;12.87;;
3405;SDS011;10008;48.682;9.016;2023-02-07T02:08:29;19.30;;;13.03;;
3405;SDS011;10008;48.682;9.016;2023-02-07T02:16:50;18.83;;;11.93;;
3405;SDS011;10008;48.682;9.016;2023-02-07T02:28:21;20.83;;;13.23;;
3405;SDS011;10008;48.682;9.016;2023-02-07T02:39:33;24.20;;;13.93;;
3405;SDS011;10008;48.682;9.016;2023-02-07T02:42:09;26.40;;;14.30;;
3405;SDS011;10008;48.682;9.016;2023-02-07T02:44:48;22.00;;;13.90;;
3405;SDS011;10008;48.682;9.016;2023-02-07T02:47:19;23.37;;;14.87;;
3405;SDS011;10008;48.682;9.016;2023-02-07T02:49:47;26.03;;;15.50;;
3405;SDS011;10008;48.682;9.016;2023-02-07T02:52:13;22.73;;;13.70;;
3405;SDS011;10008;48.682;9.016;2023-02-07T02:54:39;22.37;;;13.73;;
3405;SDS011;10008;48.682;9.016;2023-02-07T02:57:23;22.67;;;14.33;;
3405;SDS011;10008;48.682;9.016;2023-02-07T03:00:17;23.60;;;14.90;;
3405;SDS011;10008;48.682;9.016;2023-02-07T03:08:45;24.87;;;14.80;;
3405;SDS011;10008;48.682;9.016;2023-02-07T03:11:21;23.77;;;14.70;;
3405;SDS011;10008;48.682;9.016;2023-02-07T03:16:40;22.37;;;14.37;;
3405;SDS011;10008;48.682;9.016;2023-02-07T03:19:23;21.37;;;14.30;;
3405;SDS011;10008;48.682;9.016;2023-02-07T03:21:57;25.90;;;14.47;;
3405;SDS011;10008;48.682;9.016;2023-02-07T03:24:36;22.70;;;14.43;;
3405;SDS011;10008;48.682;9.016;2023-02-07T03:27:08;30.20;;;15.57;;
3405;SDS011;10008;48.682;9.016;2023-02-07T03:29:38;24.70;;;15.40;;
3405;SDS011;10008;48.682;9.016;2023-02-07T03:32:08;24.10;;;14.97;;
3405;SDS011;10008;48.682;9.016;2023-02-07T03:37:14;25.90;;;14.80;;
3405;SDS011;10008;48.682;9.016;2023-02-07T03:39:47;24.50;;;15.40;;
3405;SDS011;10008;48.682;9.016;2023-02-07T03:44:54;27.00;;;16.23;;
3405;SDS011;10008;48.682;9.016;2023-02-07T03:47:21;25.53;;;17.03;;
3405;SDS011;10008;48.682;9.016;2023-02-07T03:49:49;27.40;;;16.97;;
3405;SDS011;10008;48.682;9.016;2023-02-07T03:52:14;26.37;;;16.70;;
3405;SDS011;10008;48.682;9.016;2023-02-07T03:54:40;24.87;;;16.50;;
3405;SDS011;10008;48.682;9.016;2023-02-07T03:57:06;26.57;;;17.50;;
3405;SDS011;10008;48.682;9.016;2023-02-07T03:59:31;26.27;;;16.67;;
3405;SDS011;10008;48.682;9.016;2023-02-07T04:01:59;30.87;;;18.60;;
3405;SDS011;10008;48.682;9.016;2023-02-07T04:04:24;28.90;;;18.47;;
3405;SDS011;10008;48.682;9.016;2023-02-07T04:06:50;30.80;;;18.30;;
3405;SDS011;10008;48.682;9.016;2023-02-07T04:09:16;33.40;;;20.30;;
3405;SDS011;10008;48.682;9.016;2023-02-07T04:11:42;31.70;;;19.43;;
3405;SDS011;10008;48.682;9.016;2023-02-07T04:14:07;36.67;;;20.63;;
3405;SDS011;10008;48.682;9.016;2023-02-07T04:16:33;32.37;;;20.43;;
3405;SDS011;10008;48.682;9.016;2023-02-07T04:18:59;34.77;;;21.20;;
3405;SDS011;10008;48.682;9.016;2023-02-07T04:21:25;35.97;;;21.73;;
3405;SDS011;10008;48.682;9.016;2023-02-07T04:23:50;34.60;;;20.87;;
3405;SDS011;10008;48.682;9.016;2023-02-07T04:26:16;37.77;;;23.17;;
3405;SDS011;10008;48.682;9.016;2023-02-07T04:28:42;34.40;;;21.37;;
3405;SDS011;10008;48.682;9.016;2023-02-07T04:31:07;33.27;;;21.30;;
3405;SDS011;10008;48.682;9.016;2023-02-07T04:33:33;38.00;;;23.53;;
3405;SDS011;10008;48.682;9.016;2023-02-07T04:36:00;36.40;;;22.43;;
3405;SDS011;10008;48.682;9.016;2023-02-07T04:38:27;35.40;;;21.20;;
3405;SDS011;10008;48.682;9.016;2023-02-07T04:40:56;37.70;;;22.77;;
3405;SDS011;10008;48.682;9.016;2023-02-07T04:43:23;34.60;;;21.57;;
3405;SDS011;10008;48.682;9.016;2023-02-07T04:45:49;35.87;;;21.77;;
3405;SDS011;10008;48.682;9.016;2023-02-07T04:48:16;32.70;;;21.00;;
3405;SDS011;10008;48.682;9.016;2023-02-07T04:50:42;35.50;;;21.50;;
3405;SDS011;10008;48.682;9.016;2023-02-07T04:53:07;33.03;;;20.80;;
3405;SDS011;10008;48.682;9.016;2023-02-07T04:55:33;37.37;;;23.03;;
3405;SDS011;10008;48.682;9.016;2023-02-07T04:58:01;34.60;;;20.67;;
3405;SDS011;10008;48.682;9.016;2023-02-07T05:00:28;32.70;;;20.50;;
3405;SDS011;10008;48.682;9.016;2023-02-07T05:02:54;32.80;;;20.53;;
3405;SDS011;10008;48.682;9.016;2023-02-07T05:05:20;36.47;;;21.30;;
3405;SDS011;10008;48.682;9.016;2023-02-07T05:07:46;35.60;;;20.80;;
3405;SDS011;10008;48.682;9.016;2023-02-07T05:10:11;33.10;;;21.37;;
3405;SDS011;10008;48.682;9.016;2023-02-07T05:12:37;31.90;;;20.03;;
3405;SDS011;10008;48.682;9.016;2023-02-07T05:15:03;33.37;;;20.30;;
3405;SDS011;10008;48.682;9.016;2023-02-07T05:17:29;34.90;;;20.23;;
3405;SDS011;10008;48.682;9.016;2023-02-07T05:19:59;34.50;;;21.27;;
3405;SDS011;10008;48.682;9.016;2023-02-07T05:22:25;34.20;;;21.20;;
3405;SDS011;10008;48.682;9.016;2023-02-07T05:24:51;30.13;;;19.33;;
3405;SDS011;10008;48.682;9.016;2023-02-07T05:27:17;33.07;;;20.47;;
3405;SDS011;10008;48.682;9.016;2023-02-07T05:29:43;35.80;;;20.63;;
3405;SDS011;10008;48.682;9.016;2023-02-07T05:32:12;36.97;;;21.47;;
3405;SDS011;10008;48.682;9.016;2023-02-07T05:34:57;33.40;;;20.80;;
3405;SDS011;10008;48.682;9.016;2023-02-07T05:37:23;43.43;;;22.90;;
3405;SDS011;10008;48.682;9.016;2023-02-07T05:39:49;36.57;;;21.17;;
3405;SDS011;10008;48.682;9.016;2023-02-07T05:42:15;33.50;;;21.40;;
3405;SDS011;10008;48.682;9.016;2023-02-07T05:44:40;36.13;;;21.50;;
3405;SDS011;10008;48.682;9.016;2023-02-07T05:47:06;36.47;;;20.30;;
3405;SDS011;10008;48.682;9.016;2023-02-07T05:49:32;30.63;;;20.20;;
3405;SDS011;10008;48.682;9.016;2023-02-07T05:51:58;34.77;;;21.60;;
3405;SDS011;10008;48.682;9.016;2023-02-07T05:54:23;32.57;;;20.73;;
3405;SDS011;10008;48.682;9.016;2023-02-07T05:56:49;36.90;;;21.97;;
3405;SDS011;10008;48.682;9.016;2023-02-07T05:59:15;34.53;;;20.83;;
3405;SDS011;10008;48.682;9.016;2023-02-07T06:01:41;33.80;;;20.33;;
3405;SDS011;10008;48.682;9.016;2023-02-07T06:04:07;34.57;;;20.80;;
3405;SDS011;10008;48.682;9.016;2023-02-07T06:06:32;32.87;;;20.73;;
3405;SDS011;10008;48.682;9.016;2023-02-07T06:08:58;37.20;;;22.30;;
3405;SDS011;10008;48.682;9.016;2023-02-07T06:11:24;37.93;;;22.70;;
3405;SDS011;10008;48.682;9.016;2023-02-07T06:13:50;33.97;;;19.90;;
3405;SDS011;10008;48.682;9.016;2023-02-07T06:16:16;32.80;;;21.07;;
3405;SDS011;10008;48.682;9.016;2023-02-07T06:18:42;34.23;;;21.07;;
3405;SDS011;10008;48.682;9.016;2023-02-07T06:21:07;34.23;;;19.93;;
3405;SDS011;10008;48.682;9.016;2023-02-07T06:23:33;36.27;;;21.07;;
3405;SDS011;10008;48.682;9.016;2023-02-07T06:25:59;35.50;;;20.80;;
3405;SDS011;10008;48.682;9.016;2023-02-07T06:28:25;31.30;;;20.10;;
3405;SDS011;10008;48.682;9.016;2023-02-07T06:30:50;34.87;;;21.20;;
3405;SDS011;10008;48.682;9.016;2023-02-07T06:33:17;36.20;;;23.60;;
3405;SDS011;10008;48.682;9.016;2023-02-07T06:35:43;37.80;;;23.10;;
3405;SDS011;10008;48.682;9.016;2023-02-07T06:38:17;36.97;;;22.50;;
3405;SDS011;10008;48.682;9.016;2023-02-07T06:40:43;36.50;;;21.47;;
3405;SDS011;10008;48.682;9.016;2023-02-07T06:43:09;37.53;;;22.30;;
3405;SDS011;10008;48.682;9.016;2023-02-07T06:45:36;38.50;;;22.43;;
3405;SDS011;10008;48.682;9.016;2023-02-07T06:48:02;31.90;;;20.33;;
3405;SDS011;10008;48.682;9.016;2023-02-07T06:50:28;33.30;;;20.60;;
3405;SDS011;10008;48.682;9.016;2023-02-07T06:52:55;34.90;;;20.87;;
3405;SDS011;10008;48.682;9.016;2023-02-07T06:55:34;34.50;;;21.40;;
3405;SDS011;10008;48.682;9.016;2023-02-07T06:58:01;32.97;;;20.73;;
3405;SDS011;10008;48.682;9.016;2023-02-07T07:00:27;38.25;;;24.65;;
3405;SDS011;10008;48.682;9.016;2023-02-07T07:02:53;34.80;;;23.30;;
3405;SDS011;10008;48.682;9.016;2023-02-07T07:05:19;31.43;;;22.50;;
3405;SDS011;10008;48.682;9.016;2023-02-07T07:07:46;36.73;;;20.90;;
3405;SDS011;10008;48.682;9.016;2023-02-07T07:10:12;34.00;;;22.00;;
3405;SDS011;10008;48.682;9.016;2023-02-07T07:12:38;36.87;;;21.77;;
3405;SDS011;10008;48.682;9.016;2023-02-07T07:15:03;31.00;;;20.20;;
3405;SDS011;10008;48.682;9.016;2023-02-07T07:17:30;34.97;;;20.80;;
3405;SDS011;10008;48.682;9.016;2023-02-07T07:19:55;38.50;;;23.17;;
3405;SDS011;10008;48.682;9.016;2023-02-07T07:22:21;38.03;;;23.23;;
3405;SDS011;10008;48.682;9.016;2023-02-07T07:24:47;40.87;;;25.47;;
3405;SDS011;10008;48.682;9.016;2023-02-07T07:27:14;39.60;;;24.53;;
3405;SDS011;10008;48.682;9.016;2023-02-07T07:29:40;39.20;;;23.60;;
3405;SDS011;10008;48.682;9.016;2023-02-07T07:32:05;36.20;;;24.37;;
3405;SDS011;10008;48.682;9.016;2023-02-07T07:34:31;36.17;;;23.20;;
3405;SDS011;10008;48.682;9.016;2023-02-07T07:36:57;36.93;;;22.00;;
3405;SDS011;10008;48.682;9.016;2023-02-07T07:39:23;32.27;;;21.60;;
3405;SDS011;10008;48.682;9.016;2023-02-07T07:41:49;39.70;;;23.60;;
3405;SDS011;10008;48.682;9.016;2023-02-07T07:44:32;32.50;;;21.37;;
3405;SDS011;10008;48.682;9.016;2023-02-07T07:46:58;36.27;;;22.40;;
3405;SDS011;10008;48.682;9.016;2023-02-07T07:49:24;36.63;;;21.67;;
3405;SDS011;10008;48.682;9.016;2023-02-07T07:51:49;32.53;;;21.37;;
3405;SDS011;10008;48.682;9.016;2023-02-07T07:54:15;34.80;;;21.20;;
3405;SDS011;10008;48.682;9.016;2023-02-07T07:56:41;33.70;;;20.97;;
3405;SDS011;10008;48.682;9.016;2023-02-07T07:59:07;38.00;;;21.93;;
3405;SDS011;10008;48.682;9.016;2023-02-07T08:01:32;33.37;;;20.27;;
3405;SDS011;10008;48.682;9.016;2023-02-07T08:03:58;32.40;;;20.57;;
3405;SDS011;10008;48.682;9.016;2023-02-07T08:06:25;32.77;;;21.13;;
3405;SDS011;10008;48.682;9.016;2023-02-07T08:08:51;33.10;;;21.70;;
3405;SDS011;10008;48.682;9.016;2023-02-07T08:11:16;32.30;;;21.60;;
3405;SDS011;10008;48.682;9.016;2023-02-07T08:13:42;32.50;;;20.90;;
3405;SDS011;10008;48.682;9.016;2023-02-07T08:16:08;39.03;;;21.10;;
3405;SDS011;10008;48.682;9.016;2023-02-07T08:18:37;35.67;;;21.90;;
3405;SDS011;10008;48.682;9.016;2023-02-07T08:21:03;34.93;;;20.50;;
3405;SDS011;10008;48.682;9.016;2023-02-07T08:23:29;37.03;;;21.20;;
3405;SDS011;10008;48.682;9.016;2023-02-07T08:25:54;35.00;;;21.53;;
3405;SDS011;10008;48.682;9.016;2023-02-07T08:28:20;31.87;;;20.67;;
3405;SDS011;10008;48.682;9.016;2023-02-07T08:30:46;33.20;;;22.00;;
3405;SDS011;10008;48.682;9.016;2023-02-07T08:33:13;33.80;;;21.27;;
3405;SDS011;10008;48.682;9.016;2023-02-07T08:35:39;28.50;;;20.17;;
3405;SDS011;10008;48.682;9.016;2023-02-07T08:38:05;25.80;;;19.67;;
3405;SDS011;10008;48.682;9.016;2023-02-07T08:40:30;28.27;;;20.40;;
3405;SDS011;10008;48.682;9.016;2023-02-07T08:42:57;26.30;;;19.87;;
3405;SDS011;10008;48.682;9.016;2023-02-07T08:45:23;28.43;;;20.00;;
3405;SDS011;10008;48.682;9.016;2023-02-07T08:47:49;27.37;;;20.80;;
3405;SDS011;10008;48.682;9.016;2023-02-07T08:50:15;26.50;;;19.93;;
3405;SDS011;10008;48.682;9.016;2023-02-07T08:52:42;25.50;;;20.07;;
3405;SDS011;10008;48.682;9.016;2023-02-07T08:55:08;27.40;;;19.63;;
3405;SDS011;10008;48.682;9.016;2023-02-07T08:57:34;24.67;;;18.60;;
3405;SDS011;10008;48.682;9.016;2023-02-07T09:00:00;25.10;;;19.57;;
3405;SDS011;10008;48.682;9.016;2023-02-07T09:02:27;27.53;;;18.90;;
3405;SDS011;10008;48.682;9.016;2023-02-07T09:04:52;24.97;;;19.27;;
3405;SDS011;10008;48.682;9.016;2023-02-07T09:07:19;24.37;;;21.10;;
3405;SDS011;10008;48.682;9.016;2023-02-07T09:09:45;24.70;;;20.37;;
3405;SDS011;10008;48.682;9.016;2023-02-07T09:12:11;26.40;;;20.60;;
3405;SDS011;10008;48.682;9.016;2023-02-07T09:14:38;24.33;;;20.10;;
3405;SDS011;10008;48.682;9.016;2023-02-07T09:17:04;26.17;;;21.53;;
3405;SDS011;10008;48.682;9.016;2023-02-07T09:19:31;27.80;;;21.57;;
3405;SDS011;10008;48.682;9.016;2023-02-07T09:21:57;26.70;;;21.50;;
3405;SDS011;10008;48.682;9.016;2023-02-07T09:24:22;26.53;;;21.30;;
3405;SDS011;10008;48.682;9.016;2023-02-07T09:26:48;25.40;;;20.63;;
3405;SDS011;10008;48.682;9.016;2023-02-07T09:29:14;26.47;;;21.13;;
3405;SDS011;10008;48.682;9.016;2023-02-07T09:31:40;23.33;;;20.03;;
3405;SDS011;10008;48.682;9.016;2023-02-07T09:34:06;26.00;;;20.50;;
3405;SDS011;10008;48.682;9.016;2023-02-07T09:36:33;25.90;;;21.07;;
3405;SDS011;10008;48.682;9.016;2023-02-07T09:38:59;25.03;;;20.93;;
3405;SDS011;10008;48.682;9.016;2023-02-07T09:41:28;24.40;;;20.70;;
3405;SDS011;10008;48.682;9.016;2023-02-07T09:44:15;25.33;;;21.27;;
3405;SDS011;10008;48.682;9.016;2023-02-07T09:47:02;25.30;;;21.00;;
3405;SDS011;10008;48.682;9.016;2023-02-07T09:49:38;23.83;;;20.00;;
3405;SDS011;10008;48.682;9.016;2023-02-07T09:55:46;23.37;;;20.93;;
3405;SDS011;10008;48.682;9.016;2023-02-07T09:58:14;23.50;;;21.00;;
3405;SDS011;10008;48.682;9.016;2023-02-07T10:00:46;24.67;;;21.63;;
3405;SDS011;10008;48.682;9.016;2023-02-07T10:03:22;24.27;;;21.73;;
3405;SDS011;10008;48.682;9.016;2023-02-07T10:05:58;24.93;;;22.27;;
3405;SDS011;10008;48.682;9.016;2023-02-07T10:08:29;26.30;;;23.70;;
3405;SDS011;10008;48.682;9.016;2023-02-07T10:11:03;27.10;;;23.23;;
3405;SDS011;10008;48.682;9.016;2023-02-07T10:13:55;26.30;;;23.50;;
3405;SDS011;10008;48.682;9.016;2023-02-07T10:16:45;26.50;;;23.80;;
3405;SDS011;10008;48.682;9.016;2023-02-07T10:19:23;25.33;;;22.93;;
3405;SDS011;10008;48.682;9.016;2023-02-07T10:30:50;25.60;;;22.87;;
3405;SDS011;10008;48.682;9.016;2023-02-07T10:33:20;26.17;;;23.60;;
3405;SDS011;10008;48.682;9.016;2023-02-07T10:35:48;26.87;;;24.37;;
3405;SDS011;10008;48.682;9.016;2023-02-07T10:41:06;26.23;;;23.83;;
3405;SDS011;10008;48.682;9.016;2023-02-07T10:43:39;25.97;;;23.43;;
3405;SDS011;10008;48.682;9.016;2023-02-07T10:46:08;25.17;;;22.80;;
3405;SDS011;10008;48.682;9.016;2023-02-07T10:48:36;24.63;;;22.33;;
3405;SDS011;10008;48.682;9.016;2023-02-07T10:51:02;26.33;;;23.63;;
3405;SDS011;10008;48.682;9.016;2023-02-07T10:56:26;27.13;;;24.53;;
3405;SDS011;10008;48.682;9.016;2023-02-07T10:58:53;25.83;;;23.20;;
3405;SDS011;10008;48.682;9.016;2023-02-07T11:01:23;23.07;;;20.80;;
3405;SDS011;10008;48.682;9.016;2023-02-07T11:03:50;27.63;;;21.63;;
3405;SDS011;10008;48.682;9.016;2023-02-07T11:06:24;23.30;;;21.20;;
3405;SDS011;10008;48.682;9.016;2023-02-07T11:09:41;22.90;;;20.80;;
3405;SDS011;10008;48.682;9.016;2023-02-07T11:11:51;26.03;;;23.67;;
3405;SDS011;10008;48.682;9.016;2023-02-07T11:14:19;24.43;;;22.23;;
3405;SDS011;10008;48.682;9.016;2023-02-07T11:16:59;22.37;;;20.17;;
3405;SDS011;10008;48.682;9.016;2023-02-07T11:19:28;23.97;;;21.67;;
3405;SDS011;10008;48.682;9.016;2023-02-07T11:22:17;23.83;;;21.63;;
3405;SDS011;10008;48.682;9.016;2023-02-07T11:24:45;23.77;;;21.50;;
3405;SDS011;10008;48.682;9.016;2023-02-07T11:27:13;23.23;;;21.03;;
3405;SDS011;10008;48.682;9.016;2023-02-07T11:29:47;23.77;;;21.57;;
3405;SDS011;10008;48.682;9.016;2023-02-07T11:32:25;26.07;;;23.47;;
3405;SDS011;10008;48.682;9.016;2023-02-07T11:34:59;23.50;;;21.30;;
3405;SDS011;10008;48.682;9.016;2023-02-07T11:37:30;23.50;;;21.40;;
3405;SDS011;10008;48.682;9.016;2023-02-07T11:40:43;21.90;;;20.00;;
3405;SDS011;10008;48.682;9.016;2023-02-07T11:43:16;23.43;;;21.03;;
3405;SDS011;10008;48.682;9.016;2023-02-07T11:45:53;22.17;;;20.17;;
3405;SDS011;10008;48.682;9.016;2023-02-07T11:48:25;23.40;;;21.30;;
3405;SDS011;10008;48.682;9.016;2023-02-07T11:50:54;22.87;;;20.77;;
3405;SDS011;10008;48.682;9.016;2023-02-07T11:53:23;23.63;;;21.43;;
3405;SDS011;10008;48.682;9.016;2023-02-07T11:56:01;24.03;;;21.83;;
3405;SDS011;10008;48.682;9.016;2023-02-07T11:58:35;24.90;;;22.50;;
3405;SDS011;10008;48.682;9.016;2023-02-07T12:01:04;22.80;;;20.70;;
3405;SDS011;10008;48.682;9.016;2023-02-07T12:03:32;22.90;;;20.70;;
3405;SDS011;10008;48.682;9.016;2023-02-07T12:06:05;21.80;;;19.80;;
3405;SDS011;10008;48.682;9.016;2023-02-07T12:08:37;22.70;;;20.60;;
3405;SDS011;10008;48.682;9.016;2023-02-07T12:11:16;22.23;;;20.13;;
3405;SDS011;10008;48.682;9.016;2023-02-07T12:13:55;22.23;;;20.03;;
3405;SDS011;10008;48.682;9.016;2023-02-07T12:16:28;22.43;;;20.37;;
3405;SDS011;10008;48.682;9.016;2023-02-07T12:21:36;22.77;;;20.70;;
3405;SDS011;10008;48.682;9.016;2023-02-07T12:24:16;21.97;;;19.70;;
3405;SDS011;10008;48.682;9.016;2023-02-07T12:26:57;20.60;;;18.60;;
3405;SDS011;10008;48.682;9.016;2023-02-07T12:34:37;19.80;;;18.00;;
3405;SDS011;10008;48.682;9.016;2023-02-07T12:37:16;20.00;;;18.00;;
3405;SDS011;10008;48.682;9.016;2023-02-07T12:39:51;19.97;;;18.13;;
3405;SDS011;10008;48.682;9.016;2023-02-07T12:46:01;18.73;;;17.13;;
3405;SDS011;10008;48.682;9.016;2023-02-07T12:48:32;19.03;;;17.33;;
3405;SDS011;10008;48.682;9.016;2023-02-07T12:53:57;20.10;;;18.33;;
3405;SDS011;10008;48.682;9.016;2023-02-07T12:59:19;18.87;;;17.23;;
3405;SDS011;10008;48.682;9.016;2023-02-07T13:02:31;19.07;;;17.37;;
3405;SDS011;10008;48.682;9.016;2023-02-07T13:13:24;20.67;;;18.87;;
3405;SDS011;10008;48.682;9.016;2023-02-07T13:18:44;19.67;;;17.97;;
3405;SDS011;10008;48.682;9.016;2023-02-07T13:24:38;21.30;;;19.23;;
3405;SDS011;10008;48.682;9.016;2023-02-07T13:27:08;20.50;;;18.70;;
3405;SDS011;10008;48.682;9.016;2023-02-07T13:29:41;19.90;;;18.13;;
3405;SDS011;10008;48.682;9.016;2023-02-07T13:32:09;19.80;;;18.00;;
3405;SDS011;10008;48.682;9.016;2023-02-07T13:40:45;21.07;;;19.07;;
3405;SDS011;10008;48.682;9.016;2023-02-07T13:49:00;20.13;;;18.33;;
3405;SDS011;10008;48.682;9.016;2023-02-07T13:54:34;19.60;;;17.93;;
3405;SDS011;10008;48.682;9.016;2023-02-07T13:57:11;20.50;;;17.73;;
3405;SDS011;10008;48.682;9.016;2023-02-07T14:00:21;19.53;;;17.83;;
3405;SDS011;10008;48.682;9.016;2023-02-07T14:02:58;20.50;;;18.43;;
3405;SDS011;10008;48.682;9.016;2023-02-07T14:05:28;20.00;;;18.20;;
3405;SDS011;10008;48.682;9.016;2023-02-07T14:07:57;20.50;;;18.60;;
3405;SDS011;10008;48.682;9.016;2023-02-07T14:10:37;20.53;;;18.63;;
3405;SDS011;10008;48.682;9.016;2023-02-07T14:16:09;19.17;;;17.37;;
3405;SDS011;10008;48.682;9.016;2023-02-07T14:21:27;18.70;;;16.90;;
3405;SDS011;10008;48.682;9.016;2023-02-07T14:35:01;18.57;;;16.90;;
3405;SDS011;10008;48.682;9.016;2023-02-07T14:37:48;18.60;;;16.90;;
3405;SDS011;10008;48.682;9.016;2023-02-07T14:43:06;17.27;;;15.77;;
3405;SDS011;10008;48.682;9.016;2023-02-07T14:45:36;18.63;;;16.97;;
3405;SDS011;10008;48.682;9.016;2023-02-07T14:48:31;18.90;;;17.20;;
3405;SDS011;10008;48.682;9.016;2023-02-07T14:51:00;18.53;;;16.83;;
3405;SDS011;10008;48.682;9.016;2023-02-07T14:53:27;18.03;;;16.43;;
3405;SDS011;10008;48.682;9.016;2023-02-07T14:55:59;17.40;;;15.90;;
3405;SDS011;10008;48.682;9.016;2023-02-07T14:58:35;19.10;;;17.30;;
3405;SDS011;10008;48.682;9.016;2023-02-07T15:01:12;18.43;;;16.77;;
3405;SDS011;10008;48.682;9.016;2023-02-07T15:03:41;18.73;;;17.13;;
3405;SDS011;10008;48.682;9.016;2023-02-07T15:06:18;18.30;;;16.60;;
3405;SDS011;10008;48.682;9.016;2023-02-07T15:08:57;18.50;;;16.70;;
3405;SDS011;10008;48.682;9.016;2023-02-07T15:11:25;18.87;;;17.17;;
3405;SDS011;10008;48.682;9.016;2023-02-07T15:13:53;17.73;;;16.03;;
3405;SDS011;10008;48.682;9.016;2023-02-07T15:16:22;19.27;;;17.57;;
3405;SDS011;10008;48.682;9.016;2023-02-07T15:18:52;19.40;;;17.57;;
3405;SDS011;10008;48.682;9.016;2023-02-07T15:21:40;18.57;;;16.77;;
3405;SDS011;10008;48.682;9.016;2023-02-07T15:26:54;18.40;;;16.80;;
3405;SDS011;10008;48.682;9.016;2023-02-07T15:29:29;17.93;;;16.23;;
3405;SDS011;10008;48.682;9.016;2023-02-07T15:31:57;18.00;;;16.27;;
3405;SDS011;10008;48.682;9.016;2023-02-07T15:34:30;18.13;;;16.43;;
3405;SDS011;10008;48.682;9.016;2023-02-07T15:36:58;17.43;;;15.87;;
3405;SDS011;10008;48.682;9.016;2023-02-07T15:39:35;18.10;;;16.30;;
3405;SDS011;10008;48.682;9.016;2023-02-07T15:42:01;17.97;;;16.37;;
3405;SDS011;10008;48.682;9.016;2023-02-07T15:44:31;17.57;;;15.87;;
3405;SDS011;10008;48.682;9.016;2023-02-07T15:46:59;16.80;;;15.30;;
3405;SDS011;10008;48.682;9.016;2023-02-07T15:49:28;16.30;;;14.80;;
3405;SDS011;10008;48.682;9.016;2023-02-07T15:54:49;16.10;;;14.70;;
3405;SDS011;10008;48.682;9.016;2023-02-07T16:00:05;17.10;;;15.40;;
3405;SDS011;10008;48.682;9.016;2023-02-07T16:02:40;16.00;;;14.60;;
3405;SDS011;10008;48.682;9.016;2023-02-07T16:05:15;17.30;;;15.70;;
3405;SDS011;10008;48.682;9.016;2023-02-07T16:07:49;17.37;;;15.53;;
3405;SDS011;10008;48.682;9.016;2023-02-07T16:12:52;15.80;;;14.40;;
3405;SDS011;10008;48.682;9.016;2023-02-07T16:15:37;16.40;;;14.87;;
3405;SDS011;10008;48.682;9.016;2023-02-07T16:21:25;15.97;;;14.57;;
3405;SDS011;10008;48.682;9.016;2023-02-07T16:23:54;16.77;;;15.27;;
3405;SDS011;10008;48.682;9.016;2023-02-07T16:26:25;16.27;;;14.77;;
3405;SDS011;10008;48.682;9.016;2023-02-07T16:28:54;17.03;;;15.33;;
3405;SDS011;10008;48.682;9.016;2023-02-07T16:31:20;17.53;;;15.83;;
3405;SDS011;10008;48.682;9.016;2023-02-07T16:33:46;17.27;;;15.70;;
3405;SDS011;10008;48.682;9.016;2023-02-07T16:36:16;17.30;;;15.60;;
3405;SDS011;10008;48.682;9.016;2023-02-07T16:38:42;17.40;;;15.80;;
3405;SDS011;10008;48.682;9.016;2023-02-07T16:43:49;17.47;;;15.70;;
3405;SDS011;10008;48.682;9.016;2023-02-07T16:46:14;20.50;;;17.73;;
3405;SDS011;10008;48.682;9.016;2023-02-07T16:48:40;19.20;;;17.30;;
3405;SDS011;10008;48.682;9.016;2023-02-07T16:51:06;19.20;;;17.30;;
3405;SDS011;10008;48.682;9.016;2023-02-07T16:53:32;21.20;;;17.40;;
3405;SDS011;10008;48.682;9.016;2023-02-07T16:55:57;18.33;;;16.43;;
3405;SDS011;10008;48.682;9.016;2023-02-07T16:58:25;18.90;;;16.73;;
3405;SDS011;10008;48.682;9.016;2023-02-07T17:00:52;18.40;;;16.50;;
3405;SDS011;10008;48.682;9.016;2023-02-07T17:03:19;18.10;;;16.30;;
3405;SDS011;10008;48.682;9.016;2023-02-07T17:05:45;18.93;;;17.03;;
3405;SDS011;10008;48.682;9.016;2023-02-07T17:08:15;19.30;;;17.40;;